Time;durP1;ratioP1;P1;durP2;ratioP2;P2;SDS_P1;SDS_P2;PMS_P1;PMS_P2;Temp;Humidity;BMP_temperature;BMP_pressure;BME280_temperature;BME280_humidity;BME280_pressure;Samples;Min_cycle;Max_cycle;Signal;HPM_P1;HPM_P2
2020/12/26 00:01:25;;;;;;;6.33;1.17;;;;;;;;;;4954895;29;20027;-83
2020/12/26 00:03:51;;;;;;;3.87;0.60;;;;;;;;;;4959132;29;20051;-83
2020/12/26 00:06:18;;;;;;;7.57;0.80;;;;;;;;;;4931535;29;20564;-82
2020/12/26 00:08:45;;;;;;;4.00;0.50;;;;;;;;;;4945508;29;20028;-82
2020/12/26 00:11:12;;;;;;;12.97;1.10;;;;;;;;;;4946756;29;20032;-82
2020/12/26 00:13:38;;;;;;;8.93;1.27;;;;;;;;;;4948274;29;20086;-82
2020/12/26 00:16:08;;;;;;;5.60;0.90;;;;;;;;;;4939433;29;20032;-83
2020/12/26 00:18:35;;;;;;;5.60;1.20;;;;;;;;;;4948866;29;20059;-82
2020/12/26 00:21:02;;;;;;;13.50;1.63;;;;;;;;;;4948187;29;20038;-83
2020/12/26 00:23:28;;;;;;;7.90;1.20;;;;;;;;;;4949360;29;20520;-82
2020/12/26 00:25:54;;;;;;;9.13;1.67;;;;;;;;;;4947075;29;20062;-83
2020/12/26 00:28:20;;;;;;;6.97;1.03;;;;;;;;;;4946649;29;20126;-82
2020/12/26 00:30:46;;;;;;;9.27;0.97;;;;;;;;;;4949602;29;20028;-83
2020/12/26 00:33:12;;;;;;;7.03;1.30;;;;;;;;;;4949677;29;20027;-82
2020/12/26 00:35:38;;;;;;;9.80;1.27;;;;;;;;;;4950557;29;20063;-83
2020/12/26 00:38:04;;;;;;;4.73;0.90;;;;;;;;;;4956872;29;20022;-83
2020/12/26 00:40:30;;;;;;;7.23;1.27;;;;;;;;;;4956682;29;20019;-84
2020/12/26 00:42:56;;;;;;;4.50;0.80;;;;;;;;;;4958468;29;20038;-84
2020/12/26 00:45:22;;;;;;;8.60;0.90;;;;;;;;;;4951020;29;20052;-83
2020/12/26 00:47:48;;;;;;;8.17;1.00;;;;;;;;;;4951718;29;20028;-83
2020/12/26 00:50:15;;;;;;;7.27;0.87;;;;;;;;;;4952177;29;20024;-83
2020/12/26 00:52:41;;;;;;;7.47;1.20;;;;;;;;;;4952935;29;20050;-83
2020/12/26 00:55:07;;;;;;;5.47;1.20;;;;;;;;;;4955268;29;20036;-83
2020/12/26 00:57:36;;;;;;;10.30;1.57;;;;;;;;;;4956461;29;20035;-83
2020/12/26 01:00:03;;;;;;;10.43;0.97;;;;;;;;;;4957035;29;20032;-83
2020/12/26 01:02:29;;;;;;;6.37;1.10;;;;;;;;;;4958893;29;20027;-83
2020/12/26 01:04:55;;;;;;;8.57;1.27;;;;;;;;;;4955671;29;20138;-83
2020/12/26 01:07:21;;;;;;;9.37;1.20;;;;;;;;;;4956480;29;20042;-84
2020/12/26 01:09:47;;;;;;;9.30;1.27;;;;;;;;;;4956547;29;20028;-83
2020/12/26 01:12:13;;;;;;;10.50;1.77;;;;;;;;;;4956197;29;20027;-83
2020/12/26 01:14:42;;;;;;;10.53;1.57;;;;;;;;;;4955555;29;20028;-82
2020/12/26 01:17:08;;;;;;;9.93;1.47;;;;;;;;;;4955360;29;20020;-82
2020/12/26 01:19:34;;;;;;;8.20;1.10;;;;;;;;;;4950692;29;20078;-83
2020/12/26 01:22:01;;;;;;;12.87;1.80;;;;;;;;;;4949712;29;20054;-83
2020/12/26 01:24:27;;;;;;;7.67;1.20;;;;;;;;;;4948717;29;20035;-83
2020/12/26 01:26:53;;;;;;;4.57;1.03;;;;;;;;;;4948617;29;20031;-84
2020/12/26 01:29:19;;;;;;;13.77;1.70;;;;;;;;;;4950945;29;20032;-83
2020/12/26 01:31:51;;;;;;;7.17;1.00;;;;;;;;;;4947976;29;20058;-83
2020/12/26 01:34:18;;;;;;;11.13;1.20;;;;;;;;;;4949590;29;20035;-83
2020/12/26 01:36:48;;;;;;;8.60;2.40;;;;;;;;;;4948960;29;20031;-83
2020/12/26 01:39:14;;;;;;;11.57;1.10;;;;;;;;;;4953442;29;20087;-84
2020/12/26 01:41:40;;;;;;;13.10;2.10;;;;;;;;;;4956447;29;20024;-85
2020/12/26 01:44:06;;;;;;;10.63;1.30;;;;;;;;;;4956719;29;20039;-84
2020/12/26 01:46:33;;;;;;;11.80;1.37;;;;;;;;;;4954658;29;20031;-84
2020/12/26 01:49:03;;;;;;;9.03;1.03;;;;;;;;;;4952026;29;20052;-84
2020/12/26 01:51:31;;;;;;;6.87;1.30;;;;;;;;;;4953857;29;20090;-83
2020/12/26 01:53:57;;;;;;;6.30;1.27;;;;;;;;;;4956266;29;20051;-84
2020/12/26 01:56:26;;;;;;;9.83;2.80;;;;;;;;;;4956642;29;20075;-84
2020/12/26 01:58:52;;;;;;;7.23;1.13;;;;;;;;;;4956710;29;20031;-84
2020/12/26 02:01:18;;;;;;;8.77;2.43;;;;;;;;;;4954330;29;20024;-83
2020/12/26 02:03:44;;;;;;;11.67;1.77;;;;;;;;;;4950242;29;20051;-83
2020/12/26 02:06:10;;;;;;;8.53;1.33;;;;;;;;;;4952954;29;20024;-84
2020/12/26 02:08:37;;;;;;;11.80;2.80;;;;;;;;;;4956212;29;20007;-85
2020/12/26 02:11:06;;;;;;;15.37;1.73;;;;;;;;;;4953707;29;20056;-85
2020/12/26 02:13:33;;;;;;;8.20;1.13;;;;;;;;;;4959528;29;20023;-85
2020/12/26 02:16:06;;;;;;;7.47;1.33;;;;;;;;;;4958092;29;20039;-84
2020/12/26 02:18:33;;;;;;;14.10;1.53;;;;;;;;;;4960515;29;20031;-85
2020/12/26 02:20:59;;;;;;;11.40;0.93;;;;;;;;;;4960694;29;20016;-84
2020/12/26 02:23:26;;;;;;;13.10;1.50;;;;;;;;;;4961702;29;20060;-84
2020/12/26 02:25:53;;;;;;;10.70;1.20;;;;;;;;;;4957472;29;20030;-83
2020/12/26 02:28:19;;;;;;;7.57;1.50;;;;;;;;;;4947211;29;20027;-83
2020/12/26 02:30:46;;;;;;;12.93;2.90;;;;;;;;;;4946856;29;20027;-83
2020/12/26 02:33:12;;;;;;;9.67;1.47;;;;;;;;;;4946727;29;20509;-83
2020/12/26 02:35:38;;;;;;;5.20;1.07;;;;;;;;;;4946858;29;20108;-81
2020/12/26 02:38:04;;;;;;;7.00;1.00;;;;;;;;;;4948080;29;20045;-83
2020/12/26 02:40:30;;;;;;;8.67;1.40;;;;;;;;;;4947787;29;20474;-83
2020/12/26 02:42:56;;;;;;;10.13;1.07;;;;;;;;;;4947555;29;20052;-83
2020/12/26 02:45:22;;;;;;;6.97;1.50;;;;;;;;;;4946664;29;20066;-82
2020/12/26 02:47:48;;;;;;;7.20;1.60;;;;;;;;;;4947222;29;20486;-82
2020/12/26 02:50:14;;;;;;;11.70;2.17;;;;;;;;;;4949820;29;20024;-83
2020/12/26 02:52:40;;;;;;;14.23;1.33;;;;;;;;;;4950133;29;20062;-83
2020/12/26 02:55:06;;;;;;;7.83;1.20;;;;;;;;;;4948432;29;20036;-83
2020/12/26 02:57:32;;;;;;;14.70;1.50;;;;;;;;;;4934002;29;20042;-82
2020/12/26 02:59:58;;;;;;;6.33;1.20;;;;;;;;;;4951369;29;20466;-83
2020/12/26 03:02:24;;;;;;;12.63;1.50;;;;;;;;;;4947592;29;20059;-82
2020/12/26 03:04:51;;;;;;;11.40;1.73;;;;;;;;;;4949475;29;20110;-83
2020/12/26 03:07:17;;;;;;;8.57;1.13;;;;;;;;;;4948007;29;20066;-83
2020/12/26 03:09:43;;;;;;;9.50;1.70;;;;;;;;;;4948363;29;20028;-83
2020/12/26 03:12:09;;;;;;;15.03;1.53;;;;;;;;;;4948844;29;20115;-83
2020/12/26 03:14:35;;;;;;;10.80;1.80;;;;;;;;;;4949904;29;20036;-83
2020/12/26 03:17:03;;;;;;;13.13;1.50;;;;;;;;;;4949930;29;20114;-83
2020/12/26 03:19:29;;;;;;;13.03;1.30;;;;;;;;;;4950817;29;20046;-83
2020/12/26 03:21:55;;;;;;;17.40;1.70;;;;;;;;;;4950869;29;20080;-83
2020/12/26 03:24:21;;;;;;;7.07;1.00;;;;;;;;;;4950522;29;20046;-83
2020/12/26 03:26:47;;;;;;;12.10;1.93;;;;;;;;;;4954891;29;20028;-83
2020/12/26 03:29:13;;;;;;;11.73;1.00;;;;;;;;;;4956957;29;20035;-83
2020/12/26 03:31:40;;;;;;;7.20;1.13;;;;;;;;;;4960284;29;20024;-84
2020/12/26 03:34:06;;;;;;;5.60;0.90;;;;;;;;;;4960106;29;20028;-83
2020/12/26 03:36:32;;;;;;;7.70;1.03;;;;;;;;;;4960025;29;20027;-81
2020/12/26 03:38:58;;;;;;;18.53;1.37;;;;;;;;;;4958322;29;20031;-83
2020/12/26 03:41:24;;;;;;;14.57;1.37;;;;;;;;;;4960433;29;20035;-83
2020/12/26 03:43:50;;;;;;;8.57;1.40;;;;;;;;;;4956059;29;20067;-83
2020/12/26 03:46:16;;;;;;;8.40;1.10;;;;;;;;;;4952346;29;20032;-82
2020/12/26 03:48:42;;;;;;;7.77;1.00;;;;;;;;;;4957313;29;20111;-84
2020/12/26 03:51:08;;;;;;;10.27;1.70;;;;;;;;;;4960370;29;20035;-83
2020/12/26 03:53:34;;;;;;;12.83;1.27;;;;;;;;;;4954216;29;20035;-83
2020/12/26 03:56:00;;;;;;;7.83;1.43;;;;;;;;;;4953312;29;20032;-82
2020/12/26 03:58:26;;;;;;;12.80;2.43;;;;;;;;;;4956941;29;20043;-84
2020/12/26 04:00:52;;;;;;;10.53;1.37;;;;;;;;;;4944442;29;20063;-84
2020/12/26 04:03:18;;;;;;;12.27;1.23;;;;;;;;;;4959597;29;20068;-84
2020/12/26 04:05:44;;;;;;;5.93;1.43;;;;;;;;;;4938512;29;20059;-82
2020/12/26 04:08:10;;;;;;;9.13;1.50;;;;;;;;;;4946199;29;20066;-82
2020/12/26 04:10:36;;;;;;;15.00;1.77;;;;;;;;;;4947492;29;20113;-83
2020/12/26 04:13:03;;;;;;;9.33;1.13;;;;;;;;;;4950588;29;20041;-83
2020/12/26 04:15:29;;;;;;;15.30;1.70;;;;;;;;;;4952089;29;20032;-82
2020/12/26 04:17:55;;;;;;;15.13;1.40;;;;;;;;;;4958835;29;20024;-84
2020/12/26 04:20:21;;;;;;;9.57;1.50;;;;;;;;;;4956336;29;20095;-82
2020/12/26 04:22:47;;;;;;;10.00;0.97;;;;;;;;;;4959579;29;20008;-83
2020/12/26 04:25:13;;;;;;;14.93;1.43;;;;;;;;;;4957696;29;20031;-82
2020/12/26 04:27:39;;;;;;;12.13;1.30;;;;;;;;;;4949188;29;20063;-83
2020/12/26 04:30:06;;;;;;;6.40;0.97;;;;;;;;;;4953152;29;20095;-83
2020/12/26 04:32:32;;;;;;;7.23;1.07;;;;;;;;;;4956905;29;20028;-83
2020/12/26 04:34:58;;;;;;;8.33;1.03;;;;;;;;;;4953718;29;20470;-82
2020/12/26 04:37:24;;;;;;;12.43;1.10;;;;;;;;;;4950912;29;20462;-82
2020/12/26 04:39:50;;;;;;;3.57;1.00;;;;;;;;;;4947344;29;20034;-82
2020/12/26 04:42:17;;;;;;;7.20;1.20;;;;;;;;;;4945427;29;20028;-82
2020/12/26 04:44:43;;;;;;;5.50;0.97;;;;;;;;;;4944727;29;20063;-82
2020/12/26 04:47:12;;;;;;;5.47;0.97;;;;;;;;;;4945076;29;20043;-83
2020/12/26 04:49:39;;;;;;;9.60;1.33;;;;;;;;;;4945059;29;20028;-83
2020/12/26 04:52:08;;;;;;;7.23;0.90;;;;;;;;;;4945835;29;20039;-83
2020/12/26 04:54:40;;;;;;;7.83;1.10;;;;;;;;;;4946472;29;20033;-82
2020/12/26 04:57:07;;;;;;;4.83;0.90;;;;;;;;;;4949860;29;20026;-83
2020/12/26 04:59:34;;;;;;;6.23;1.77;;;;;;;;;;4951621;29;20525;-84
2020/12/26 05:02:01;;;;;;;8.87;1.07;;;;;;;;;;4953448;29;20106;-83
2020/12/26 05:04:27;;;;;;;7.07;0.97;;;;;;;;;;4953865;29;20058;-83
2020/12/26 05:06:54;;;;;;;4.67;0.83;;;;;;;;;;4955524;29;20077;-83
2020/12/26 05:09:21;;;;;;;5.00;0.97;;;;;;;;;;4949196;29;20027;-83
2020/12/26 05:11:51;;;;;;;6.97;1.10;;;;;;;;;;4949036;29;20099;-83
2020/12/26 05:14:18;;;;;;;9.50;1.00;;;;;;;;;;4951631;29;20028;-83
2020/12/26 05:16:44;;;;;;;13.53;1.07;;;;;;;;;;4956678;29;20032;-84
2020/12/26 05:19:10;;;;;;;8.53;1.43;;;;;;;;;;4953591;29;20030;-83
2020/12/26 05:21:37;;;;;;;7.00;0.93;;;;;;;;;;4948950;29;20050;-83
2020/12/26 05:24:03;;;;;;;11.90;2.07;;;;;;;;;;4947717;29;20032;-83
2020/12/26 05:26:30;;;;;;;7.70;0.90;;;;;;;;;;4947901;29;20020;-83
2020/12/26 05:29:00;;;;;;;4.47;0.97;;;;;;;;;;4949095;29;20008;-83
2020/12/26 05:31:42;;;;;;;7.07;0.80;;;;;;;;;;4951685;29;20103;-83
2020/12/26 05:34:11;;;;;;;3.50;1.07;;;;;;;;;;4952518;29;20047;-83
2020/12/26 05:36:37;;;;;;;8.63;0.97;;;;;;;;;;4954967;29;20031;-84
2020/12/26 05:39:04;;;;;;;6.63;1.27;;;;;;;;;;4959209;29;20075;-84
2020/12/26 05:41:30;;;;;;;14.07;0.90;;;;;;;;;;4960287;29;20023;-84
2020/12/26 05:43:57;;;;;;;6.73;1.00;;;;;;;;;;4960968;29;20060;-84
2020/12/26 05:46:23;;;;;;;8.90;0.97;;;;;;;;;;4949660;29;20190;-82
2020/12/26 05:48:49;;;;;;;6.50;1.83;;;;;;;;;;4952864;29;20122;-83
2020/12/26 05:51:25;;;;;;;12.17;0.93;;;;;;;;;;4952837;29;20059;-82
2020/12/26 05:53:57;;;;;;;8.20;0.93;;;;;;;;;;4952957;29;20035;-83
2020/12/26 05:56:24;;;;;;;13.83;2.63;;;;;;;;;;4954120;29;20019;-84
2020/12/26 05:58:50;;;;;;;8.60;1.00;;;;;;;;;;4957658;29;20039;-86
2020/12/26 06:01:20;;;;;;;5.53;1.00;;;;;;;;;;4956167;29;20054;-82
2020/12/26 06:03:47;;;;;;;4.57;0.67;;;;;;;;;;4957224;29;20110;-83
2020/12/26 06:06:14;;;;;;;11.20;1.10;;;;;;;;;;4958692;29;20031;-83
2020/12/26 06:08:40;;;;;;;4.27;0.60;;;;;;;;;;4959117;29;20027;-83
2020/12/26 06:11:07;;;;;;;7.30;1.00;;;;;;;;;;4959308;29;20030;-83
2020/12/26 06:13:34;;;;;;;10.80;0.80;;;;;;;;;;4959646;29;20044;-84
2020/12/26 06:16:00;;;;;;;8.33;0.97;;;;;;;;;;4957412;29;20046;-82
2020/12/26 06:18:27;;;;;;;10.37;0.97;;;;;;;;;;4955133;29;20043;-82
2020/12/26 06:20:53;;;;;;;6.73;0.87;;;;;;;;;;4958301;29;20027;-83
2020/12/26 06:23:20;;;;;;;6.93;0.60;;;;;;;;;;4958185;29;20034;-83
2020/12/26 06:25:47;;;;;;;6.00;1.40;;;;;;;;;;4961948;29;20059;-84
2020/12/26 06:28:33;;;;;;;13.30;1.37;;;;;;;;;;4963910;29;20035;-84
2020/12/26 06:31:09;;;;;;;6.30;1.27;;;;;;;;;;4962209;29;20031;-83
2020/12/26 06:33:39;;;;;;;16.87;1.37;;;;;;;;;;4963341;29;20012;-86
2020/12/26 06:36:06;;;;;;;10.60;1.67;;;;;;;;;;4959977;29;20044;-83
2020/12/26 06:38:32;;;;;;;12.33;1.30;;;;;;;;;;4958598;29;20027;-83
2020/12/26 06:41:01;;;;;;;12.67;1.60;;;;;;;;;;4961369;29;20028;-83
2020/12/26 06:43:39;;;;;;;12.53;1.60;;;;;;;;;;4962208;29;20031;-83
2020/12/26 06:46:15;;;;;;;12.17;1.90;;;;;;;;;;4961851;29;20016;-81
2020/12/26 06:48:44;;;;;;;9.87;1.40;;;;;;;;;;4961068;29;20070;-83
2020/12/26 06:51:23;;;;;;;10.63;1.37;;;;;;;;;;4961738;29;20028;-82
2020/12/26 06:53:49;;;;;;;12.90;2.30;;;;;;;;;;4962073;29;20047;-84
2020/12/26 06:56:34;;;;;;;13.53;1.90;;;;;;;;;;4962056;29;20056;-84
2020/12/26 06:59:01;;;;;;;10.27;1.92;;;;;;;;;;4961472;29;20032;-81
2020/12/26 07:01:27;;;;;;;15.80;1.90;;;;;;;;;;4958683;29;20024;-83
2020/12/26 07:04:09;;;;;;;8.00;1.40;;;;;;;;;;4958498;29;20080;-82
2020/12/26 07:06:39;;;;;;;11.03;1.10;;;;;;;;;;4957417;29;20032;-82
2020/12/26 07:09:05;;;;;;;8.43;1.10;;;;;;;;;;4953112;29;20031;-83
2020/12/26 07:11:31;;;;;;;10.47;1.70;;;;;;;;;;4957748;29;20032;-83
2020/12/26 07:13:58;;;;;;;12.97;1.80;;;;;;;;;;4957720;29;20051;-83
2020/12/26 07:16:37;;;;;;;14.23;2.00;;;;;;;;;;4961176;29;20059;-84
2020/12/26 07:19:22;;;;;;;10.30;1.57;;;;;;;;;;4962235;29;20083;-84
2020/12/26 07:21:51;;;;;;;11.48;1.52;;;;;;;;;;4962330;29;20035;-84
2020/12/26 07:24:18;;;;;;;9.73;1.60;;;;;;;;;;4962240;29;20023;-84
2020/12/26 07:26:44;;;;;;;12.97;1.80;;;;;;;;;;4956598;29;20028;-82
2020/12/26 07:29:11;;;;;;;7.33;2.53;;;;;;;;;;4954881;29;20008;-83
2020/12/26 07:31:47;;;;;;;11.53;1.57;;;;;;;;;;4957361;29;20027;-83
2020/12/26 07:34:32;;;;;;;8.17;1.50;;;;;;;;;;4955435;29;20022;-84
2020/12/26 07:36:58;;;;;;;7.38;1.40;;;;;;;;;;4954852;29;20406;-84
2020/12/26 07:39:24;;;;;;;4.97;1.50;;;;;;;;;;4954999;29;20087;-83
2020/12/26 07:41:50;;;;;;;10.20;1.40;;;;;;;;;;4943752;29;20035;-83
2020/12/26 07:44:18;;;;;;;15.73;2.60;;;;;;;;;;4958886;29;20031;-84
2020/12/26 07:46:44;;;;;;;10.50;1.70;;;;;;;;;;4959524;29;20092;-83
2020/12/26 07:49:14;;;;;;;10.40;1.30;;;;;;;;;;4960001;29;20038;-84
2020/12/26 07:51:40;;;;;;;7.77;1.00;;;;;;;;;;4958167;29;20529;-81
2020/12/26 07:54:06;;;;;;;9.53;1.13;;;;;;;;;;4958600;29;20055;-82
2020/12/26 07:56:34;;;;;;;13.13;1.33;;;;;;;;;;4954368;29;20032;-82
2020/12/26 07:59:01;;;;;;;10.03;0.93;;;;;;;;;;4936853;29;20078;-84
2020/12/26 08:01:27;;;;;;;13.37;1.20;;;;;;;;;;4952954;29;20111;-85
2020/12/26 08:04:01;;;;;;;8.37;1.27;;;;;;;;;;4954852;29;20048;-86
2020/12/26 08:06:27;;;;;;;13.23;1.73;;;;;;;;;;4956833;29;20087;-86
2020/12/26 08:08:54;;;;;;;14.87;1.07;;;;;;;;;;4957598;29;20366;-87
2020/12/26 08:11:23;;;;;;;10.03;1.33;;;;;;;;;;4958149;29;20091;-85
2020/12/26 08:14:08;;;;;;;10.67;1.60;;;;;;;;;;4955719;29;20032;-88
2020/12/26 08:16:34;;;;;;;17.15;1.88;;;;;;;;;;4954310;29;20044;-82
2020/12/26 08:19:01;;;;;;;7.97;1.60;;;;;;;;;;4952862;29;20127;-84
2020/12/26 08:21:27;;;;;;;8.07;1.07;;;;;;;;;;4953957;29;20059;-85
2020/12/26 08:23:58;;;;;;;6.70;1.00;;;;;;;;;;4953250;29;20038;-84
2020/12/26 08:26:25;;;;;;;9.93;1.47;;;;;;;;;;4952583;29;20028;-83
2020/12/26 08:28:53;;;;;;;7.23;1.10;;;;;;;;;;4952012;29;20047;-83
2020/12/26 08:31:22;;;;;;;14.07;1.40;;;;;;;;;;4953453;29;20030;-86
2020/12/26 08:33:50;;;;;;;10.60;1.43;;;;;;;;;;4956224;29;20020;-84
2020/12/26 08:36:24;;;;;;;7.27;1.07;;;;;;;;;;4958138;29;20024;-82
2020/12/26 08:38:57;;;;;;;18.93;1.80;;;;;;;;;;4959260;29;20035;-85
2020/12/26 08:41:24;;;;;;;9.13;1.27;;;;;;;;;;4959486;29;20296;-85
2020/12/26 08:43:50;;;;;;;12.87;2.23;;;;;;;;;;5346369;23;20035;-85
2020/12/26 08:46:18;;;;;;;7.27;1.63;;;;;;;;;;4978491;28;20035;-83
2020/12/26 08:48:44;;;;;;;12.10;1.80;;;;;;;;;;4976596;29;20102;-83
2020/12/26 08:51:17;;;;;;;14.90;2.40;;;;;;;;;;4976420;29;20019;-83
2020/12/26 08:53:44;;;;;;;7.70;1.77;;;;;;;;;;4974460;29;20031;-83
2020/12/26 08:56:10;;;;;;;9.80;1.73;;;;;;;;;;4974911;29;20058;-83
2020/12/26 08:58:37;;;;;;;6.77;2.37;;;;;;;;;;4976411;29;20023;-84
2020/12/26 09:01:04;;;;;;;6.20;2.07;;;;;;;;;;4978048;29;20050;-84
2020/12/26 09:03:31;;;;;;;9.53;2.00;;;;;;;;;;4976266;29;20011;-83
2020/12/26 09:05:58;;;;;;;7.33;2.00;;;;;;;;;;4975497;29;20038;-83
2020/12/26 09:08:29;;;;;;;6.83;2.00;;;;;;;;;;4965775;29;20429;-83
2020/12/26 09:10:56;;;;;;;14.10;2.70;;;;;;;;;;4968226;29;20029;-83
2020/12/26 09:13:28;;;;;;;12.60;2.43;;;;;;;;;;4969786;29;20055;-84
2020/12/26 09:16:01;;;;;;;8.93;2.57;;;;;;;;;;4967119;29;20050;-82
2020/12/26 09:18:27;;;;;;;15.87;3.27;;;;;;;;;;4966602;29;20034;-83
2020/12/26 09:20:57;;;;;;;15.13;2.73;;;;;;;;;;4965095;29;20042;-83
2020/12/26 09:23:23;;;;;;;14.50;2.07;;;;;;;;;;4967847;28;20041;-83
2020/12/26 09:25:50;;;;;;;14.60;3.13;;;;;;;;;;4968916;29;20047;-82
2020/12/26 09:28:17;;;;;;;5.57;2.17;;;;;;;;;;4969472;28;20031;-83
2020/12/26 09:30:43;;;;;;;14.20;2.17;;;;;;;;;;4969902;29;20389;-84
2020/12/26 09:33:09;;;;;;;10.37;2.07;;;;;;;;;;4972338;29;20094;-82
2020/12/26 09:35:35;;;;;;;11.13;2.67;;;;;;;;;;4977675;29;20031;-83
2020/12/26 09:38:02;;;;;;;12.27;2.23;;;;;;;;;;4977599;29;20100;-84
2020/12/26 09:40:32;;;;;;;15.20;2.27;;;;;;;;;;4978329;29;20023;-83
2020/12/26 09:42:58;;;;;;;10.67;2.10;;;;;;;;;;4975723;29;20047;-84
2020/12/26 09:45:24;;;;;;;17.03;2.27;;;;;;;;;;4971228;29;20040;-84
2020/12/26 09:47:51;;;;;;;8.63;2.60;;;;;;;;;;4967482;29;20035;-83
2020/12/26 09:50:17;;;;;;;9.57;1.80;;;;;;;;;;4966977;29;20123;-84
2020/12/26 09:52:43;;;;;;;8.87;3.27;;;;;;;;;;4967827;29;20099;-83
2020/12/26 09:55:10;;;;;;;11.67;2.00;;;;;;;;;;4969349;29;20034;-83
2020/12/26 09:57:37;;;;;;;11.90;2.63;;;;;;;;;;4973833;29;20034;-84
2020/12/26 10:00:04;;;;;;;8.97;1.57;;;;;;;;;;4976311;29;20023;-84
2020/12/26 10:02:30;;;;;;;12.40;2.30;;;;;;;;;;4973767;29;20074;-82
2020/12/26 10:04:56;;;;;;;12.27;2.47;;;;;;;;;;4973076;29;20047;-84
2020/12/26 10:07:22;;;;;;;18.30;2.50;;;;;;;;;;4975793;28;20035;-82
2020/12/26 10:09:48;;;;;;;14.07;2.30;;;;;;;;;;4969572;29;20034;-82
2020/12/26 10:12:14;;;;;;;12.33;2.50;;;;;;;;;;4968917;29;20023;-83
2020/12/26 10:14:40;;;;;;;12.73;2.97;;;;;;;;;;4968649;29;20078;-83
2020/12/26 10:17:07;;;;;;;12.93;2.70;;;;;;;;;;4967439;29;20027;-81
2020/12/26 10:19:33;;;;;;;11.33;1.80;;;;;;;;;;4970635;29;20036;-84
2020/12/26 10:21:59;;;;;;;15.73;2.77;;;;;;;;;;4971722;29;20050;-80
2020/12/26 10:24:25;;;;;;;17.50;6.30;;;;;;;;;;4973744;29;20039;-81
2020/12/26 10:26:51;;;;;;;18.07;5.00;;;;;;;;;;4976092;28;20027;-81
2020/12/26 10:29:17;;;;;;;8.83;2.17;;;;;;;;;;4976842;28;20027;-81
2020/12/26 10:31:43;;;;;;;13.33;2.23;;;;;;;;;;4971406;29;20023;-83
2020/12/26 10:34:09;;;;;;;11.13;2.83;;;;;;;;;;4971988;28;20473;-81
2020/12/26 10:36:41;;;;;;;13.90;2.80;;;;;;;;;;4973463;29;20027;-81
2020/12/26 10:39:07;;;;;;;12.90;2.17;;;;;;;;;;4979275;28;20031;-81
2020/12/26 10:41:33;;;;;;;11.37;2.60;;;;;;;;;;4981149;28;20038;-80
2020/12/26 10:43:59;;;;;;;15.43;2.47;;;;;;;;;;4980570;29;20059;-82
2020/12/26 10:46:25;;;;;;;15.27;2.67;;;;;;;;;;4980616;29;20038;-85
2020/12/26 10:51:27;;;;;;;9.53;1.97;;;;;;;;;;4997032;23;20186;-83
2020/12/26 10:53:53;;;;;;;10.77;2.80;;;;;;;;;;4981492;29;20018;-82
2020/12/26 10:56:19;;;;;;;8.67;2.00;;;;;;;;;;4973507;29;20023;-80
2020/12/26 10:58:45;;;;;;;12.17;2.40;;;;;;;;;;4970841;29;20024;-80
2020/12/26 11:01:11;;;;;;;8.50;2.10;;;;;;;;;;4971311;29;20023;-80
2020/12/26 11:03:37;;;;;;;11.90;2.27;;;;;;;;;;4971222;29;20024;-81
2020/12/26 11:06:03;;;;;;;18.80;4.03;;;;;;;;;;4971334;29;20038;-81
2020/12/26 11:08:29;;;;;;;13.50;2.40;;;;;;;;;;4970916;29;20027;-81
2020/12/26 11:10:55;;;;;;;13.20;3.13;;;;;;;;;;4974641;29;20035;-84
2020/12/26 11:13:22;;;;;;;8.93;2.10;;;;;;;;;;4974169;29;20055;-83
2020/12/26 11:18:16;;;;;;;14.63;3.10;;;;;;;;;;4954959;29;20052;-79
2020/12/26 11:20:42;;;;;;;12.93;2.67;;;;;;;;;;4936689;29;20035;-81
2020/12/26 11:23:09;;;;;;;7.47;2.10;;;;;;;;;;4938351;29;20028;-81
2020/12/26 11:25:35;;;;;;;13.93;3.10;;;;;;;;;;4955994;29;20032;-82
2020/12/26 11:28:02;;;;;;;14.30;2.87;;;;;;;;;;4939905;29;20042;-82
2020/12/26 11:30:28;;;;;;;10.43;3.20;;;;;;;;;;4956692;29;20024;-84
2020/12/26 11:32:54;;;;;;;10.83;3.20;;;;;;;;;;4939021;29;20035;-80
2020/12/26 11:35:20;;;;;;;12.43;2.80;;;;;;;;;;4956730;28;20059;-80
2020/12/26 11:37:46;;;;;;;22.17;4.57;;;;;;;;;;4942355;29;20030;-82
2020/12/26 11:40:13;;;;;;;11.40;3.60;;;;;;;;;;4943437;29;20012;-81
2020/12/26 11:42:39;;;;;;;9.43;2.90;;;;;;;;;;4942734;29;20058;-80
2020/12/26 11:45:05;;;;;;;10.47;3.87;;;;;;;;;;4956056;28;20103;-81
2020/12/26 11:47:32;;;;;;;10.03;4.03;;;;;;;;;;4956838;29;20088;-79
2020/12/26 11:49:58;;;;;;;13.50;3.93;;;;;;;;;;4957437;29;20031;-80
2020/12/26 11:52:24;;;;;;;13.47;5.53;;;;;;;;;;4943185;29;20040;-81
2020/12/26 11:54:51;;;;;;;10.70;4.47;;;;;;;;;;4956016;29;20036;-79
2020/12/26 11:57:16;;;;;;;14.83;4.47;;;;;;;;;;4934841;29;20023;-82
2020/12/26 11:59:43;;;;;;;11.83;4.07;;;;;;;;;;4953081;29;20035;-81
2020/12/26 12:02:09;;;;;;;12.77;4.57;;;;;;;;;;4934752;29;20056;-81
2020/12/26 12:04:35;;;;;;;14.87;4.47;;;;;;;;;;4938344;29;20103;-79
2020/12/26 12:07:01;;;;;;;16.63;4.40;;;;;;;;;;4937590;29;20046;-82
2020/12/26 12:09:27;;;;;;;12.40;4.70;;;;;;;;;;4938060;29;20026;-81
2020/12/26 12:11:53;;;;;;;12.97;4.00;;;;;;;;;;4957805;29;20059;-84
2020/12/26 12:14:19;;;;;;;13.57;5.67;;;;;;;;;;4955333;29;20036;-81
2020/12/26 12:16:49;;;;;;;12.50;4.20;;;;;;;;;;4937154;29;20070;-81
2020/12/26 12:19:15;;;;;;;12.17;5.17;;;;;;;;;;4939040;29;20056;-83
2020/12/26 12:21:44;;;;;;;12.03;4.47;;;;;;;;;;4941424;29;20096;-83
2020/12/26 12:24:09;;;;;;;14.50;5.23;;;;;;;;;;4940187;29;20059;-83
2020/12/26 12:26:35;;;;;;;16.03;4.73;;;;;;;;;;4940789;29;20020;-83
2020/12/26 12:29:01;;;;;;;9.43;4.30;;;;;;;;;;4934595;29;20039;-80
2020/12/26 12:31:27;;;;;;;9.90;4.40;;;;;;;;;;4933365;29;20035;-80
2020/12/26 12:33:54;;;;;;;14.10;4.37;;;;;;;;;;4933764;29;20039;-80
2020/12/26 12:36:21;;;;;;;12.40;4.60;;;;;;;;;;4934892;29;20036;-80
2020/12/26 12:38:47;;;;;;;19.30;5.30;;;;;;;;;;4935036;29;20055;-81
2020/12/26 12:41:14;;;;;;;10.63;6.03;;;;;;;;;;4950154;29;20031;-81
2020/12/26 12:43:40;;;;;;;15.57;5.73;;;;;;;;;;4932590;29;20485;-79
2020/12/26 12:46:06;;;;;;;8.63;5.30;;;;;;;;;;4936252;29;20134;-81
2020/12/26 12:48:32;;;;;;;15.00;5.90;;;;;;;;;;4936835;29;20031;-81
2020/12/26 12:50:58;;;;;;;6.77;4.80;;;;;;;;;;4937127;29;20088;-80
2020/12/26 12:53:24;;;;;;;12.80;5.53;;;;;;;;;;4936174;29;20028;-80
2020/12/26 12:55:50;;;;;;;16.17;6.57;;;;;;;;;;4939634;29;20066;-83
2020/12/26 12:58:16;;;;;;;11.83;6.27;;;;;;;;;;4938791;29;20036;-80
2020/12/26 13:00:42;;;;;;;33.27;22.73;;;;;;;;;;4940114;29;20090;-80
2020/12/26 13:03:08;;;;;;;9.03;6.40;;;;;;;;;;4938677;29;20092;-79
2020/12/26 13:05:36;;;;;;;14.53;8.60;;;;;;;;;;4934594;29;20064;-80
2020/12/26 13:08:02;;;;;;;14.63;8.10;;;;;;;;;;4937859;29;20051;-79
2020/12/26 13:10:28;;;;;;;10.27;7.93;;;;;;;;;;4953090;29;20028;-79
2020/12/26 13:12:54;;;;;;;9.70;6.43;;;;;;;;;;4952215;29;20035;-81
2020/12/26 13:15:20;;;;;;;11.53;6.93;;;;;;;;;;4938343;29;20040;-81
2020/12/26 13:17:46;;;;;;;15.77;8.33;;;;;;;;;;4936000;29;20066;-79
2020/12/26 13:20:12;;;;;;;7.83;7.03;;;;;;;;;;4930732;29;20055;-81
2020/12/26 13:22:38;;;;;;;8.57;7.20;;;;;;;;;;4930544;29;20059;-80
2020/12/26 13:25:06;;;;;;;13.07;7.73;;;;;;;;;;4930968;29;20486;-79
2020/12/26 13:27:32;;;;;;;12.63;8.10;;;;;;;;;;4930973;29;20035;-80
2020/12/26 13:29:58;;;;;;;10.33;7.63;;;;;;;;;;4930004;29;20028;-80
2020/12/26 13:32:24;;;;;;;10.20;8.03;;;;;;;;;;4929567;29;20083;-78
2020/12/26 13:34:50;;;;;;;8.20;6.97;;;;;;;;;;4932041;29;20040;-80
2020/12/26 13:37:16;;;;;;;7.63;6.53;;;;;;;;;;4933754;29;20028;-79
2020/12/26 13:39:42;;;;;;;8.07;6.83;;;;;;;;;;4935535;29;20034;-82
2020/12/26 13:42:11;;;;;;;11.23;7.87;;;;;;;;;;4934153;29;20034;-79
2020/12/26 13:44:37;;;;;;;13.57;8.73;;;;;;;;;;4932841;29;20044;-79
2020/12/26 13:47:03;;;;;;;12.13;8.37;;;;;;;;;;4933608;29;20075;-81
2020/12/26 13:49:29;;;;;;;13.70;8.87;;;;;;;;;;4948103;29;20536;-79
2020/12/26 13:51:55;;;;;;;10.63;6.80;;;;;;;;;;4935778;29;20019;-81
2020/12/26 13:54:24;;;;;;;11.80;8.10;;;;;;;;;;4938100;29;20486;-81
2020/12/26 13:56:53;;;;;;;12.97;9.70;;;;;;;;;;4936609;29;20101;-82
2020/12/26 13:59:19;;;;;;;9.53;8.53;;;;;;;;;;4936937;29;20012;-83
2020/12/26 14:01:45;;;;;;;11.40;8.47;;;;;;;;;;4941243;29;20031;-81
2020/12/26 14:04:12;;;;;;;5.53;5.03;;;;;;;;;;4939167;29;20035;-82
2020/12/26 14:06:39;;;;;;;10.20;8.93;;;;;;;;;;4938628;29;20084;-83
2020/12/26 14:09:06;;;;;;;11.87;9.43;;;;;;;;;;4935869;29;20505;-80
2020/12/26 14:11:32;;;;;;;12.70;10.33;;;;;;;;;;4935430;29;20039;-80
2020/12/26 14:13:58;;;;;;;13.37;8.07;;;;;;;;;;4951357;29;20031;-81
2020/12/26 14:16:25;;;;;;;9.23;8.33;;;;;;;;;;4950230;29;20036;-80
2020/12/26 14:18:55;;;;;;;9.83;7.73;;;;;;;;;;4934496;29;20082;-81
2020/12/26 14:21:29;;;;;;;10.13;9.07;;;;;;;;;;4935466;29;20086;-80
2020/12/26 14:23:55;;;;;;;10.25;8.55;;;;;;;;;;4933561;29;20051;-80
2020/12/26 14:26:21;;;;;;;7.47;6.70;;;;;;;;;;4950158;29;20083;-82
2020/12/26 14:28:48;;;;;;;12.20;10.00;;;;;;;;;;4936733;29;20024;-82
2020/12/26 14:31:14;;;;;;;10.67;9.77;;;;;;;;;;4948211;29;20028;-79
2020/12/26 14:33:40;;;;;;;11.67;10.47;;;;;;;;;;4934558;29;20058;-79
2020/12/26 14:36:06;;;;;;;12.37;9.87;;;;;;;;;;4952908;29;20032;-81
2020/12/26 14:38:32;;;;;;;13.20;9.80;;;;;;;;;;4936763;29;20035;-80
2020/12/26 14:40:58;;;;;;;15.07;11.13;;;;;;;;;;4940038;29;20095;-81